Time;durP1;ratioP1;P1;durP2;ratioP2;P2;SDS_P1;SDS_P2;PMS_P1;PMS_P2;Temp;Humidity;BMP_temperature;BMP_pressure;BME280_temperature;BME280_humidity;BME280_pressure;Samples;Min_cycle;Max_cycle;Signal;HPM_P1;HPM_P2
2023/08/18 00:00:11;;;;;;;8.70;3.03;;;;;;;19.96;100.00;94659.41;4885334;29;20164;-86
2023/08/18 00:02:37;;;;;;;7.97;3.38;;;;;;;19.92;100.00;94667.22;4868897;29;20429;-87
2023/08/18 00:05:03;;;;;;;5.90;3.05;;;;;;;19.84;100.00;94662.69;4868753;29;20048;-87
2023/08/18 00:07:28;;;;;;;15.43;3.25;;;;;;;19.76;100.00;94669.59;4885511;29;20037;-87
2023/08/18 00:09:54;;;;;;;7.20;2.85;;;;;;;19.64;100.00;94670.25;4868811;29;20044;-87
2023/08/18 00:12:19;;;;;;;7.25;3.15;;;;;;;19.60;100.00;94669.34;4868999;29;20069;-87
2023/08/18 00:14:45;;;;;;;8.73;2.88;;;;;;;19.60;100.00;94664.81;4868563;29;20037;-87
2023/08/18 00:17:10;;;;;;;5.72;3.00;;;;;;;19.76;100.00;94666.94;4868636;29;20093;-87
2023/08/18 00:19:35;;;;;;;7.20;2.83;;;;;;;19.75;100.00;94654.75;4885293;29;20043;-87
2023/08/18 00:22:01;;;;;;;7.38;2.90;;;;;;;19.76;100.00;94664.28;4868605;29;20044;-87
2023/08/18 00:24:26;;;;;;;11.32;3.15;;;;;;;19.78;100.00;94667.38;4884946;29;20037;-87
2023/08/18 00:26:51;;;;;;;10.38;3.22;;;;;;;19.57;100.00;94662.78;4868539;29;20044;-87
2023/08/18 00:29:17;;;;;;;9.68;3.67;;;;;;;19.39;100.00;94664.69;4870148;29;20037;-87
2023/08/18 00:31:43;;;;;;;7.40;3.55;;;;;;;19.16;100.00;94664.09;4884511;29;20041;-87
2023/08/18 00:34:09;;;;;;;7.78;3.42;;;;;;;19.31;100.00;94657.53;4902369;29;20032;-87
2023/08/18 00:36:34;;;;;;;7.30;3.03;;;;;;;19.44;100.00;94669.06;4902665;29;20089;-87
2023/08/18 00:39:01;;;;;;;7.55;3.60;;;;;;;18.95;100.00;94667.38;4886943;29;20037;-87
2023/08/18 00:41:27;;;;;;;14.00;3.72;;;;;;;18.63;100.00;94658.78;4871501;29;20043;-87
2023/08/18 00:43:52;;;;;;;8.82;3.42;;;;;;;18.73;100.00;94657.72;4871418;29;20351;-87
2023/08/18 00:46:18;;;;;;;11.63;3.03;;;;;;;18.91;100.00;94663.78;4886840;29;20048;-87
2023/08/18 00:48:44;;;;;;;9.68;3.95;;;;;;;18.87;100.00;94657.53;4871421;29;20032;-87
2023/08/18 00:51:10;;;;;;;8.02;3.45;;;;;;;18.89;100.00;94663.31;4871411;29;20354;-87
2023/08/18 00:53:36;;;;;;;9.38;3.72;;;;;;;18.89;100.00;94658.00;4903399;29;20167;-87
2023/08/18 00:56:02;;;;;;;15.27;3.80;;;;;;;18.74;100.00;94662.69;4903227;29;20037;-87
2023/08/18 00:58:29;;;;;;;8.50;3.33;;;;;;;18.76;100.00;94652.53;4903509;29;20153;-87
2023/08/18 01:00:54;;;;;;;13.98;3.70;;;;;;;18.75;100.00;94652.88;4886022;29;20036;-87
2023/08/18 01:03:24;;;;;;;11.50;3.97;;;;;;;18.81;100.00;94648.19;4903125;29;20036;-87
2023/08/18 01:05:49;;;;;;;12.77;3.05;;;;;;;18.83;100.00;94646.75;4886388;29;20048;-87
2023/08/18 01:08:15;;;;;;;9.80;3.30;;;;;;;18.97;100.00;94646.63;4873617;29;20041;-87
2023/08/18 01:11:18;;;;;;;10.60;3.15;;;;;;;19.04;100.00;94638.97;4884282;29;20037;-87
2023/08/18 01:13:53;;;;;;;13.77;3.43;;;;;;;18.99;100.00;94633.84;4883015;29;20359;-87
2023/08/18 01:16:24;;;;;;;6.25;3.58;;;;;;;18.92;100.00;94636.13;4883024;29;20032;-87
2023/08/18 01:18:50;;;;;;;12.32;3.13;;;;;;;19.03;100.00;94637.41;4852360;29;20045;-87
2023/08/18 01:21:17;;;;;;;11.40;3.65;;;;;;;19.13;100.00;94633.63;4883064;29;20049;-87
2023/08/18 01:23:43;;;;;;;5.72;2.80;;;;;;;19.11;100.00;94635.84;4867500;29;20053;-87
2023/08/18 01:26:08;;;;;;;6.40;3.20;;;;;;;19.11;100.00;94635.84;4884012;29;20032;-87
2023/08/18 01:28:34;;;;;;;14.82;3.38;;;;;;;19.00;100.00;94638.03;4867561;29;20033;-87
2023/08/18 01:31:04;;;;;;;14.35;3.58;;;;;;;18.78;100.00;94641.63;4867424;29;20037;-87
2023/08/18 01:33:49;;;;;;;13.23;3.88;;;;;;;18.79;100.00;94641.31;4867577;29;20033;-87
2023/08/18 01:36:20;;;;;;;12.02;3.60;;;;;;;18.71;100.00;94628.03;4867248;29;20363;-87
2023/08/18 01:38:46;;;;;;;11.32;3.92;;;;;;;18.65;100.00;94635.38;4867505;29;20036;-86
2023/08/18 01:41:12;;;;;;;10.23;3.22;;;;;;;18.74;100.00;94630.84;4866971;29;20033;-87
2023/08/18 01:43:38;;;;;;;8.90;3.50;;;;;;;18.75;100.00;94629.75;4882627;29;20101;-87
2023/08/18 01:46:03;;;;;;;15.90;4.43;;;;;;;18.86;100.00;94637.41;4866572;29;20037;-87
2023/08/18 01:48:29;;;;;;;11.73;3.30;;;;;;;19.11;100.00;94632.41;4867088;29;20320;-87
2023/08/18 01:50:55;;;;;;;8.02;3.38;;;;;;;19.19;100.00;94634.25;4867086;29;20047;-87
2023/08/18 01:53:20;;;;;;;8.70;3.05;;;;;;;19.05;100.00;94629.91;4867238;29;20033;-87
2023/08/18 01:55:46;;;;;;;12.93;3.72;;;;;;;19.08;100.00;94625.84;4866913;29;20056;-87
2023/08/18 01:58:11;;;;;;;9.90;3.97;;;;;;;19.18;100.00;94627.41;4866951;29;20148;-87
2023/08/18 02:00:37;;;;;;;10.57;3.40;;;;;;;18.99;100.00;94633.84;4883522;29;20033;-87
2023/08/18 02:03:02;;;;;;;13.75;4.30;;;;;;;19.31;100.00;94629.09;4883452;29;20039;-87
2023/08/18 02:05:28;;;;;;;10.82;3.65;;;;;;;19.39;100.00;94629.41;4883275;29;20040;-87
2023/08/18 02:07:54;;;;;;;11.52;3.88;;;;;;;19.45;100.00;94630.78;4866826;29;20455;-87
2023/08/18 02:10:19;;;;;;;9.60;3.55;;;;;;;19.35;100.00;94629.25;4883660;29;20032;-87
2023/08/18 02:12:45;;;;;;;9.52;3.97;;;;;;;19.39;100.00;94627.50;4866081;29;20057;-87
2023/08/18 02:15:10;;;;;;;9.73;3.58;;;;;;;19.30;100.00;94632.84;4851190;29;20057;-87
2023/08/18 02:17:36;;;;;;;9.38;4.20;;;;;;;19.04;100.00;94620.38;4866763;29;20388;-87
2023/08/18 02:20:03;;;;;;;8.60;3.65;;;;;;;18.98;100.00;94618.19;4883281;29;20343;-87
2023/08/18 02:22:29;;;;;;;8.27;3.55;;;;;;;19.01;100.00;94617.56;4866695;29;20094;-87
2023/08/18 02:24:55;;;;;;;11.25;4.13;;;;;;;19.03;100.00;94618.06;4882154;29;20427;-87
2023/08/18 02:27:20;;;;;;;7.57;3.72;;;;;;;18.81;100.00;94617.09;4866515;29;20036;-87
2023/08/18 02:29:46;;;;;;;7.63;3.67;;;;;;;18.58;100.00;94625.25;4866734;29;20036;-87
2023/08/18 02:32:11;;;;;;;12.30;3.85;;;;;;;18.85;100.00;94619.91;4866810;29;20033;-87
2023/08/18 02:34:37;;;;;;;9.95;3.95;;;;;;;18.85;100.00;94625.22;4882984;29;20373;-87
2023/08/18 02:37:02;;;;;;;8.52;3.45;;;;;;;18.93;100.00;94616.47;4883096;29;20036;-87
2023/08/18 02:39:27;;;;;;;11.55;4.13;;;;;;;18.85;100.00;94620.69;4866385;29;20347;-87
2023/08/18 02:41:55;;;;;;;9.98;4.15;;;;;;;18.51;100.00;94615.09;4883030;29;20064;-87
2023/08/18 02:44:20;;;;;;;9.68;4.15;;;;;;;18.49;100.00;94622.56;4882908;29;20112;-87
2023/08/18 02:46:47;;;;;;;10.07;3.70;;;;;;;18.57;100.00;94617.56;4866346;29;20060;-87
2023/08/18 02:49:12;;;;;;;12.90;4.03;;;;;;;18.56;100.00;94613.38;4882923;29;20061;-87
2023/08/18 02:51:38;;;;;;;14.30;4.43;;;;;;;18.55;100.00;94619.75;4866392;29;20068;-87
2023/08/18 02:54:03;;;;;;;9.13;3.67;;;;;;;18.56;100.00;94608.06;4866249;29;20032;-87
2023/08/18 02:56:31;;;;;;;7.60;3.92;;;;;;;18.56;100.00;94611.47;4882912;29;20124;-87
2023/08/18 02:58:57;;;;;;;14.38;4.15;;;;;;;18.56;100.00;94611.47;4851421;29;20029;-87
2023/08/18 03:01:22;;;;;;;6.40;3.90;;;;;;;18.63;100.00;94616.31;4866386;29;20033;-87
2023/08/18 03:03:47;;;;;;;11.27;3.90;;;;;;;18.58;100.00;94614.63;4850791;29;20454;-87
2023/08/18 03:06:13;;;;;;;7.47;4.03;;;;;;;18.69;100.00;94611.63;4866138;29;20112;-87
2023/08/18 03:08:39;;;;;;;10.27;4.18;;;;;;;18.65;100.00;94614.16;4866223;29;20060;-86
2023/08/18 03:11:05;;;;;;;10.23;3.85;;;;;;;18.69;100.00;94609.78;4881229;29;20436;-87
2023/08/18 03:13:30;;;;;;;13.70;4.63;;;;;;;18.62;100.00;94607.59;4882774;29;20033;-87
2023/08/18 03:15:56;;;;;;;10.20;4.30;;;;;;;18.52;100.00;94599.94;4865833;29;20068;-87
2023/08/18 03:18:21;;;;;;;10.27;4.53;;;;;;;18.31;100.00;94602.41;4850742;29;20105;-87
2023/08/18 03:20:47;;;;;;;7.47;4.00;;;;;;;18.36;100.00;94605.69;4871023;29;20051;-87
2023/08/18 03:23:18;;;;;;;5.82;3.83;;;;;;;18.41;100.00;94604.78;4884924;29;20037;-87
2023/08/18 03:25:43;;;;;;;7.65;4.05;;;;;;;18.49;100.00;94597.91;4888054;29;20040;-87
2023/08/18 03:28:10;;;;;;;11.80;4.40;;;;;;;18.62;100.00;94601.50;4904938;29;20037;-87
2023/08/18 03:30:39;;;;;;;8.10;4.53;;;;;;;18.50;100.00;94597.59;4888255;29;20067;-87
2023/08/18 03:33:05;;;;;;;11.52;4.70;;;;;;;18.42;100.00;94594.94;4888241;29;20531;-87
2023/08/18 03:35:32;;;;;;;13.55;4.03;;;;;;;18.40;100.00;94595.25;4903398;29;20037;-87
2023/08/18 03:38:00;;;;;;;12.85;4.43;;;;;;;18.65;100.00;94593.69;4904514;29;20083;-87
2023/08/18 03:40:26;;;;;;;9.48;4.35;;;;;;;18.79;100.00;94588.25;4895599;29;20036;-87
2023/08/18 03:42:52;;;;;;;12.07;4.70;;;;;;;18.92;100.00;94588.34;4869352;29;20041;-87
2023/08/18 03:45:18;;;;;;;15.50;4.43;;;;;;;18.94;100.00;94583.53;4887584;29;20044;-87
2023/08/18 03:47:44;;;;;;;8.85;4.22;;;;;;;19.02;100.00;94590.72;4899869;29;20091;-87
2023/08/18 03:50:13;;;;;;;10.57;3.88;;;;;;;19.03;100.00;94594.16;4887576;29;20043;-87
2023/08/18 03:52:38;;;;;;;16.52;4.57;;;;;;;18.86;100.00;94592.28;4870019;29;20040;-87
2023/08/18 03:55:05;;;;;;;9.98;4.55;;;;;;;18.76;100.00;94588.84;4869314;29;20486;-87
2023/08/18 03:57:30;;;;;;;10.40;4.30;;;;;;;18.87;100.00;94593.84;4885707;29;20037;-87
2023/08/18 03:59:56;;;;;;;12.93;4.72;;;;;;;18.94;100.00;94599.47;4868577;29;20045;-87
2023/08/18 04:02:22;;;;;;;10.82;4.22;;;;;;;18.94;100.00;94599.47;4869138;29;20043;-87
2023/08/18 04:04:48;;;;;;;11.63;4.68;;;;;;;18.93;100.00;94595.22;4859353;29;20124;-87
2023/08/18 04:07:14;;;;;;;13.07;4.47;;;;;;;18.81;100.00;94597.75;4903297;29;20036;-87
2023/08/18 04:09:39;;;;;;;9.65;4.63;;;;;;;18.73;100.00;94608.06;4902555;29;20045;-87
2023/08/18 04:12:05;;;;;;;10.00;4.40;;;;;;;18.83;100.00;94608.84;4902078;29;20088;-87
2023/08/18 04:14:31;;;;;;;5.13;3.63;;;;;;;18.75;100.00;94611.16;4887356;29;20442;-87
2023/08/18 04:16:56;;;;;;;7.38;4.30;;;;;;;18.74;100.00;94611.50;4902827;29;20032;-87
2023/08/18 04:19:22;;;;;;;7.88;3.90;;;;;;;18.67;100.00;94611.97;4902875;29;20036;-87
2023/08/18 04:21:48;;;;;;;18.67;4.65;;;;;;;18.41;100.00;94606.63;4904214;29;20039;-87
2023/08/18 04:24:14;;;;;;;12.30;4.00;;;;;;;18.28;100.00;94611.00;4886812;29;20041;-87
2023/08/18 04:26:40;;;;;;;5.78;3.97;;;;;;;18.35;100.00;94608.66;4903627;29;20457;-87
2023/08/18 04:29:06;;;;;;;10.57;4.63;;;;;;;18.60;100.00;94614.28;4902609;29;20462;-87
2023/08/18 04:31:31;;;;;;;11.48;4.60;;;;;;;18.67;100.00;94616.47;4902606;29;20032;-87
2023/08/18 04:33:57;;;;;;;9.70;4.40;;;;;;;18.48;100.00;94615.69;4902819;29;20032;-87
2023/08/18 04:36:23;;;;;;;15.73;5.13;;;;;;;18.43;100.00;94623.00;4886248;29;20072;-87
2023/08/18 04:38:49;;;;;;;9.55;4.72;;;;;;;18.47;100.00;94623.97;4902570;29;20042;-87
2023/08/18 04:41:14;;;;;;;11.45;4.43;;;;;;;18.59;100.00;94618.03;4903322;29;20115;-87
2023/08/18 04:43:39;;;;;;;7.82;4.43;;;;;;;18.66;100.00;94621.03;4901987;29;20138;-87
2023/08/18 04:46:05;;;;;;;11.90;4.72;;;;;;;18.74;100.00;94617.56;4902155;29;20439;-87
2023/08/18 04:48:30;;;;;;;12.30;5.32;;;;;;;18.76;100.00;94611.97;4902342;29;20092;-87
2023/08/18 04:50:56;;;;;;;8.57;4.97;;;;;;;18.72;100.00;94613.66;4886827;29;20116;-87
2023/08/18 04:53:21;;;;;;;10.88;4.95;;;;;;;18.80;100.00;94620.84;4902454;29;20048;-87
2023/08/18 04:55:47;;;;;;;18.67;4.80;;;;;;;18.85;100.00;94619.91;4886187;29;20035;-87
2023/08/18 04:58:12;;;;;;;14.52;4.90;;;;;;;18.97;100.00;94616.63;4903332;29;20032;-87
2023/08/18 05:00:39;;;;;;;10.07;5.00;;;;;;;19.16;100.00;94618.97;4902054;29;20032;-87
2023/08/18 05:03:14;;;;;;;16.92;4.55;;;;;;;19.17;100.00;94623.19;4886436;29;20544;-87
2023/08/18 05:06:40;;;;;;;9.57;5.18;;;;;;;19.26;100.00;94620.50;4902121;29;20448;-85
2023/08/18 05:09:06;;;;;;;14.05;5.32;;;;;;;19.36;100.00;94618.28;4902793;29;20350;-87
2023/08/18 05:11:31;;;;;;;8.35;4.80;;;;;;;19.07;100.00;94625.06;4903070;29;20035;-87
2023/08/18 05:13:57;;;;;;;13.07;5.20;;;;;;;18.92;100.00;94630.81;4902245;29;20422;-87
2023/08/18 05:16:23;;;;;;;13.05;5.70;;;;;;;18.81;100.00;94622.41;4902700;29;20033;-88
2023/08/18 05:18:48;;;;;;;11.50;5.05;;;;;;;18.79;100.00;94635.22;4901730;29;20068;-87
2023/08/18 05:21:14;;;;;;;10.82;4.85;;;;;;;18.85;100.00;94633.19;4901599;29;20044;-88
2023/08/18 05:23:39;;;;;;;8.88;5.15;;;;;;;19.23;100.00;94632.56;4901307;29;20036;-87
2023/08/18 05:26:04;;;;;;;8.85;4.55;;;;;;;19.31;100.00;94631.75;4901379;29;20366;-87
2023/08/18 05:28:32;;;;;;;12.93;4.68;;;;;;;19.50;100.00;94631.38;4901659;29;20028;-87
2023/08/18 05:30:58;;;;;;;9.98;5.47;;;;;;;19.61;100.00;94631.03;4901633;29;20445;-86
2023/08/18 05:33:23;;;;;;;9.73;4.95;;;;;;;19.82;100.00;94635.63;4901186;29;20037;-87
2023/08/18 05:35:49;;;;;;;16.35;5.50;;;;;;;19.99;100.00;94637.47;4901409;29;20068;-87
2023/08/18 05:38:15;;;;;;;15.30;5.25;;;;;;;20.14;100.00;94638.78;4902279;29;20040;-88
2023/08/18 05:40:45;;;;;;;11.43;4.45;;;;;;;20.23;100.00;94630.75;4902584;29;20050;-90
2023/08/18 05:43:12;;;;;;;9.27;4.90;;;;;;;20.36;100.00;94631.63;4885888;29;20040;-90
2023/08/18 05:45:38;;;;;;;8.75;4.60;;;;;;;20.46;100.00;94634.69;4885190;29;20053;-90
2023/08/18 05:48:04;;;;;;;11.02;5.60;;;;;;;19.91;100.00;94631.06;4884797;29;20033;-90
2023/08/18 05:50:30;;;;;;;11.20;4.60;;;;;;;20.31;100.00;94632.59;4885136;29;20481;-90
2023/08/18 05:52:56;;;;;;;12.75;5.03;;;;;;;20.26;100.00;94638.13;4900933;29;20358;-89
2023/08/18 05:55:23;;;;;;;12.10;4.75;;;;;;;20.02;100.00;94631.50;4900745;29;20044;-90
2023/08/18 05:57:48;;;;;;;9.88;5.07;;;;;;;20.42;100.00;94635.66;4885366;29;20032;-90
2023/08/18 06:00:15;;;;;;;9.75;4.32;;;;;;;20.66;100.00;94632.38;4900949;29;20119;-88
2023/08/18 06:02:44;;;;;;;8.20;5.13;;;;;;;20.54;100.00;94640.28;4901869;29;20037;-87
2023/08/18 06:05:12;;;;;;;13.13;4.97;;;;;;;20.55;100.00;94631.19;4901698;29;20040;-87
2023/08/18 06:07:41;;;;;;;13.93;5.55;;;;;;;20.86;100.00;94627.38;4900987;29;20040;-87
2023/08/18 06:10:08;;;;;;;10.02;4.78;;;;;;;21.08;100.00;94631.56;4885878;29;20045;-87
2023/08/18 06:13:00;;;;;;;9.98;4.95;;;;;;;21.37;100.00;94624.56;4885264;29;20184;-88
2023/08/18 06:15:25;;;;;;;12.43;4.72;;;;;;;21.50;100.00;94627.25;4884834;29;20119;-89
2023/08/18 06:17:50;;;;;;;9.57;5.07;;;;;;;21.67;100.00;94632.41;4885414;29;20123;-91
2023/08/18 06:20:16;;;;;;;12.32;4.80;;;;;;;21.73;100.00;94630.31;4882201;29;20332;-91
2023/08/18 06:22:43;;;;;;;12.48;5.55;;;;;;;21.50;100.00;94632.56;4884863;29;20036;-92
2023/08/18 06:25:09;;;;;;;9.00;5.32;;;;;;;21.31;100.00;94636.53;4866267;29;20037;-88
2023/08/18 06:27:35;;;;;;;9.10;5.15;;;;;;;21.57;100.00;94633.59;4883247;29;20088;-90
2023/08/18 06:30:01;;;;;;;10.38;5.25;;;;;;;21.87;100.00;94636.09;4882933;29;20032;-90
2023/08/18 06:32:26;;;;;;;11.73;5.13;;;;;;;21.98;100.00;94636.41;4866018;29;20051;-90
2023/08/18 06:34:52;;;;;;;10.27;5.00;;;;;;;22.12;100.00;94636.09;4882830;29;20024;-91
2023/08/18 06:37:18;;;;;;;16.08;6.18;;;;;;;21.87;100.00;94637.97;4866084;29;20043;-90
2023/08/18 06:39:44;;;;;;;11.73;4.70;;;;;;;21.66;100.00;94638.06;4881590;29;20037;-88
2023/08/18 06:42:09;;;;;;;8.93;4.43;;;;;;;22.05;100.00;94641.19;4866460;29;20100;-87
2023/08/18 06:44:35;;;;;;;9.38;4.82;;;;;;;22.22;100.00;94639.41;4882776;29;20048;-88
2023/08/18 06:47:01;;;;;;;9.60;4.63;;;;;;;22.17;100.00;94635.84;4882666;29;20037;-87
2023/08/18 06:49:27;;;;;;;12.73;4.80;;;;;;;22.40;100.00;94638.06;4866593;29;20416;-87
2023/08/18 06:51:52;;;;;;;8.27;4.43;;;;;;;22.22;100.00;94634.06;4882668;29;20061;-88
2023/08/18 06:54:18;;;;;;;8.43;4.70;;;;;;;22.21;100.00;94638.63;4882627;29;20075;-88
2023/08/18 06:56:44;;;;;;;8.68;5.05;;;;;;;22.45;100.00;94643.16;4866207;29;20454;-88
2023/08/18 06:59:12;;;;;;;11.57;4.75;;;;;;;22.49;100.00;94637.97;4884761;29;20128;-87
2023/08/18 07:01:39;;;;;;;11.30;4.43;;;;;;;22.39;100.00;94638.38;4886715;29;20346;-88
2023/08/18 07:04:05;;;;;;;13.07;4.50;;;;;;;22.74;100.00;94638.69;4886415;29;20096;-87
2023/08/18 07:06:38;;;;;;;12.85;4.78;;;;;;;22.76;100.00;94641.03;4885717;29;20375;-87
2023/08/18 07:09:09;;;;;;;;;;;;;;;22.62;100.00;94652.06;4870688;29;20044;-87
2023/08/18 07:11:35;;;;;;;11.55;4.65;;;;;;;22.95;100.00;94643.03;4869867;29;20345;-88
2023/08/18 07:14:03;;;;;;;10.63;4.97;;;;;;;22.85;100.00;94655.00;4869791;29;20040;-87
2023/08/18 07:16:29;;;;;;;11.45;4.47;;;;;;;23.04;100.00;94650.16;4870080;29;20040;-87
2023/08/18 07:18:54;;;;;;;9.25;5.00;;;;;;;23.22;100.00;94654.06;4869780;29;20040;-87
2023/08/18 07:21:20;;;;;;;12.50;4.60;;;;;;;23.26;100.00;94656.84;4885425;29;20033;-88
2023/08/18 07:23:45;;;;;;;10.63;4.45;;;;;;;23.51;100.00;94652.16;4869906;29;20045;-88
2023/08/18 07:26:11;;;;;;;6.90;4.32;;;;;;;23.61;100.00;94652.78;4869514;29;20043;-88
2023/08/18 07:28:36;;;;;;;10.23;4.78;;;;;;;23.57;100.00;94656.16;4885062;29;20036;-88
2023/08/18 07:31:05;;;;;;;11.25;5.40;;;;;;;23.48;100.00;94652.09;4869502;29;20363;-88
2023/08/18 07:33:31;;;;;;;9.18;4.53;;;;;;;23.77;100.00;94652.81;4885177;29;20055;-88
2023/08/18 07:35:57;;;;;;;9.50;4.57;;;;;;;23.84;100.00;94653.75;4868902;29;20041;-88
2023/08/18 07:38:23;;;;;;;8.23;4.55;;;;;;;24.16;100.00;94662.94;4885724;29;20165;-89
2023/08/18 07:40:49;;;;;;;8.65;4.82;;;;;;;23.63;100.00;94659.38;4886068;29;20519;-89
2023/08/18 07:43:14;;;;;;;9.07;5.05;;;;;;;24.04;100.00;94659.22;4869176;29;20045;-88
2023/08/18 07:45:40;;;;;;;10.80;4.60;;;;;;;24.26;100.00;94660.47;4886003;29;20056;-89
2023/08/18 07:48:05;;;;;;;9.70;5.00;;;;;;;24.24;100.00;94656.59;4869279;29;20093;-89
2023/08/18 07:50:32;;;;;;;14.18;5.00;;;;;;;24.42;100.00;94667.72;4884558;29;20127;-88
2023/08/18 07:52:58;;;;;;;9.38;4.63;;;;;;;24.51;100.00;94667.50;4884817;29;20431;-89
2023/08/18 07:55:23;;;;;;;9.25;4.75;;;;;;;24.56;100.00;94664.59;4869373;29;20101;-89
2023/08/18 07:57:49;;;;;;;11.07;5.30;;;;;;;24.37;100.00;94673.34;4869358;29;20036;-90
2023/08/18 08:00:17;;;;;;;13.63;5.03;;;;;;;24.55;100.00;94674.50;4869071;29;20063;-89
2023/08/18 08:02:43;;;;;;;10.20;5.55;;;;;;;24.19;100.00;94657.66;4885442;29;20039;-89
2023/08/18 08:05:09;;;;;;;9.68;4.95;;;;;;;24.32;100.00;94665.56;4853583;29;20337;-91
2023/08/18 08:07:35;;;;;;;15.98;5.05;;;;;;;24.66;100.00;94669.38;4869291;29;20072;-90
2023/08/18 08:10:04;;;;;;;13.15;5.18;;;;;;;24.71;100.00;94669.13;4867615;29;20084;-91
2023/08/18 08:12:31;;;;;;;11.32;4.63;;;;;;;24.88;100.00;94675.22;4900332;29;20116;-87
2023/08/18 08:14:57;;;;;;;7.60;5.07;;;;;;;25.08;100.00;94676.00;4903115;29;20036;-87
2023/08/18 08:17:23;;;;;;;9.18;4.53;;;;;;;25.22;100.00;94667.44;4872349;29;20323;-87
2023/08/18 08:19:48;;;;;;;10.32;4.88;;;;;;;25.13;100.00;94683.00;4887283;29;20032;-88
2023/08/18 08:22:15;;;;;;;11.50;4.70;;;;;;;25.44;100.00;94669.75;4902510;29;20167;-87
2023/08/18 08:24:40;;;;;;;8.90;4.40;;;;;;;25.64;100.00;94673.19;4886137;29;20454;-88
2023/08/18 08:27:05;;;;;;;8.52;4.60;;;;;;;25.77;100.00;94673.81;4887745;29;20036;-88
2023/08/18 08:29:31;;;;;;;9.88;5.15;;;;;;;25.71;100.00;94673.34;4887070;29;20127;-88
2023/08/18 08:31:56;;;;;;;9.65;4.85;;;;;;;25.82;100.00;94676.97;4886876;29;20047;-88
2023/08/18 08:34:22;;;;;;;10.20;5.45;;;;;;;25.76;100.00;94673.03;4903489;29;20041;-88
2023/08/18 08:36:48;;;;;;;10.35;5.18;;;;;;;25.81;100.00;94672.72;4903499;29;20044;-88
2023/08/18 08:39:13;;;;;;;10.55;5.15;;;;;;;25.91;100.00;94668.69;4903396;29;20123;-85
